sensor_id;sensor_type;location;lat;lon;timestamp;P1;durP1;ratioP1;P2;durP2;ratioP2
58992;SDS011;44782;0.000;0.000;2022-07-06T00:00:26;1.67;;;1.50;;
58992;SDS011;44782;0.000;0.000;2022-07-06T00:02:42;1.90;;;1.58;;
58992;SDS011;44782;0.000;0.000;2022-07-06T00:04:58;1.95;;;1.63;;
58992;SDS011;44782;0.000;0.000;2022-07-06T00:07:13;1.63;;;1.50;;
58992;SDS011;44782;0.000;0.000;2022-07-06T00:09:29;2.60;;;1.60;;
58992;SDS011;44782;0.000;0.000;2022-07-06T00:11:45;1.60;;;1.50;;
58992;SDS011;44782;0.000;0.000;2022-07-06T00:14:00;1.73;;;1.60;;
58992;SDS011;44782;0.000;0.000;2022-07-06T00:16:16;1.50;;;1.40;;
58992;SDS011;44782;0.000;0.000;2022-07-06T00:18:32;1.48;;;1.38;;
58992;SDS011;44782;0.000;0.000;2022-07-06T00:20:47;1.60;;;1.50;;
58992;SDS011;44782;0.000;0.000;2022-07-06T00:23:03;1.80;;;1.60;;
58992;SDS011;44782;0.000;0.000;2022-07-06T00:25:19;2.15;;;1.75;;
58992;SDS011;44782;0.000;0.000;2022-07-06T00:27:34;1.65;;;1.55;;
58992;SDS011;44782;0.000;0.000;2022-07-06T00:29:50;1.80;;;1.60;;
58992;SDS011;44782;0.000;0.000;2022-07-06T00:32:06;1.88;;;1.77;;
58992;SDS011;44782;0.000;0.000;2022-07-06T00:34:22;1.60;;;1.50;;
58992;SDS011;44782;0.000;0.000;2022-07-06T00:36:37;2.03;;;1.83;;
58992;SDS011;44782;0.000;0.000;2022-07-06T00:38:53;1.73;;;1.50;;
58992;SDS011;44782;0.000;0.000;2022-07-06T00:41:08;2.20;;;1.60;;
58992;SDS011;44782;0.000;0.000;2022-07-06T00:43:24;1.65;;;1.55;;
58992;SDS011;44782;0.000;0.000;2022-07-06T00:45:40;1.73;;;1.63;;
58992;SDS011;44782;0.000;0.000;2022-07-06T00:47:55;2.30;;;1.50;;
58992;SDS011;44782;0.000;0.000;2022-07-06T00:50:12;1.52;;;1.42;;
58992;SDS011;44782;0.000;0.000;2022-07-06T00:52:36;1.58;;;1.48;;
58992;SDS011;44782;0.000;0.000;2022-07-06T00:54:52;1.60;;;1.50;;
58992;SDS011;44782;0.000;0.000;2022-07-06T00:57:09;1.70;;;1.60;;
58992;SDS011;44782;0.000;0.000;2022-07-06T00:59:24;1.60;;;1.50;;
58992;SDS011;44782;0.000;0.000;2022-07-06T01:01:42;2.00;;;1.58;;
58992;SDS011;44782;0.000;0.000;2022-07-06T01:03:57;1.58;;;1.48;;
58992;SDS011;44782;0.000;0.000;2022-07-06T01:06:13;2.13;;;1.40;;
58992;SDS011;44782;0.000;0.000;2022-07-06T01:08:29;1.65;;;1.50;;
58992;SDS011;44782;0.000;0.000;2022-07-06T01:10:45;1.70;;;1.60;;
58992;SDS011;44782;0.000;0.000;2022-07-06T01:13:00;1.35;;;1.25;;
58992;SDS011;44782;0.000;0.000;2022-07-06T01:15:20;1.60;;;1.48;;
58992;SDS011;44782;0.000;0.000;2022-07-06T01:17:38;2.38;;;1.40;;
58992;SDS011;44782;0.000;0.000;2022-07-06T01:19:54;1.60;;;1.50;;
58992;SDS011;44782;0.000;0.000;2022-07-06T01:22:10;1.45;;;1.35;;
58992;SDS011;44782;0.000;0.000;2022-07-06T01:24:25;2.58;;;1.45;;
58992;SDS011;44782;0.000;0.000;2022-07-06T01:26:41;1.60;;;1.50;;
58992;SDS011;44782;0.000;0.000;2022-07-06T01:28:57;1.50;;;1.40;;
58992;SDS011;44782;0.000;0.000;2022-07-06T01:31:13;1.50;;;1.40;;
58992;SDS011;44782;0.000;0.000;2022-07-06T01:33:33;1.52;;;1.42;;
58992;SDS011;44782;0.000;0.000;2022-07-06T01:35:49;1.60;;;1.50;;
58992;SDS011;44782;0.000;0.000;2022-07-06T01:38:04;1.77;;;1.67;;
58992;SDS011;44782;0.000;0.000;2022-07-06T01:40:20;1.83;;;1.50;;
58992;SDS011;44782;0.000;0.000;2022-07-06T01:42:36;1.60;;;1.50;;
58992;SDS011;44782;0.000;0.000;2022-07-06T01:44:52;1.50;;;1.40;;
58992;SDS011;44782;0.000;0.000;2022-07-06T01:47:08;1.45;;;1.35;;
58992;SDS011;44782;0.000;0.000;2022-07-06T01:49:24;1.70;;;1.60;;
58992;SDS011;44782;0.000;0.000;2022-07-06T01:51:40;1.60;;;1.50;;
58992;SDS011;44782;0.000;0.000;2022-07-06T01:53:55;1.33;;;1.23;;
58992;SDS011;44782;0.000;0.000;2022-07-06T01:56:11;1.60;;;1.50;;
58992;SDS011;44782;0.000;0.000;2022-07-06T01:58:27;1.65;;;1.50;;
58992;SDS011;44782;0.000;0.000;2022-07-06T02:00:43;1.58;;;1.48;;
58992;SDS011;44782;0.000;0.000;2022-07-06T02:02:58;1.40;;;1.30;;
58992;SDS011;44782;0.000;0.000;2022-07-06T02:05:14;1.70;;;1.60;;
58992;SDS011;44782;0.000;0.000;2022-07-06T02:07:29;1.40;;;1.27;;
58992;SDS011;44782;0.000;0.000;2022-07-06T02:09:45;1.30;;;1.20;;
58992;SDS011;44782;0.000;0.000;2022-07-06T02:12:00;1.90;;;1.50;;
58992;SDS011;44782;0.000;0.000;2022-07-06T02:14:16;1.55;;;1.45;;
58992;SDS011;44782;0.000;0.000;2022-07-06T02:16:32;1.50;;;1.40;;
58992;SDS011;44782;0.000;0.000;2022-07-06T02:18:47;1.52;;;1.42;;
58992;SDS011;44782;0.000;0.000;2022-07-06T02:21:04;1.63;;;1.50;;
58992;SDS011;44782;0.000;0.000;2022-07-06T02:23:20;1.60;;;1.50;;
58992;SDS011;44782;0.000;0.000;2022-07-06T02:25:36;1.50;;;1.40;;
58992;SDS011;44782;0.000;0.000;2022-07-06T02:27:51;1.40;;;1.30;;
58992;SDS011;44782;0.000;0.000;2022-07-06T02:30:07;1.60;;;1.50;;
58992;SDS011;44782;0.000;0.000;2022-07-06T02:32:23;1.65;;;1.55;;
58992;SDS011;44782;0.000;0.000;2022-07-06T02:34:39;2.00;;;1.80;;
58992;SDS011;44782;0.000;0.000;2022-07-06T02:36:54;1.50;;;1.40;;
58992;SDS011;44782;0.000;0.000;2022-07-06T02:39:10;1.35;;;1.25;;
58992;SDS011;44782;0.000;0.000;2022-07-06T02:41:25;1.40;;;1.30;;
58992;SDS011;44782;0.000;0.000;2022-07-06T02:43:41;1.50;;;1.40;;
58992;SDS011;44782;0.000;0.000;2022-07-06T02:45:57;1.27;;;1.17;;
58992;SDS011;44782;0.000;0.000;2022-07-06T02:48:12;1.45;;;1.35;;
58992;SDS011;44782;0.000;0.000;2022-07-06T02:50:28;1.38;;;1.27;;
58992;SDS011;44782;0.000;0.000;2022-07-06T02:52:44;1.50;;;1.40;;
58992;SDS011;44782;0.000;0.000;2022-07-06T02:54:59;1.40;;;1.30;;
58992;SDS011;44782;0.000;0.000;2022-07-06T02:57:15;1.40;;;1.30;;
58992;SDS011;44782;0.000;0.000;2022-07-06T02:59:31;1.60;;;1.50;;
58992;SDS011;44782;0.000;0.000;2022-07-06T03:01:47;1.40;;;1.30;;
58992;SDS011;44782;0.000;0.000;2022-07-06T03:04:02;1.50;;;1.40;;
58992;SDS011;44782;0.000;0.000;2022-07-06T03:06:18;1.50;;;1.30;;
58992;SDS011;44782;0.000;0.000;2022-07-06T03:08:34;1.35;;;1.25;;
58992;SDS011;44782;0.000;0.000;2022-07-06T03:10:49;1.45;;;1.35;;
58992;SDS011;44782;0.000;0.000;2022-07-06T03:13:05;1.40;;;1.30;;
58992;SDS011;44782;0.000;0.000;2022-07-06T03:15:20;1.27;;;1.17;;
58992;SDS011;44782;0.000;0.000;2022-07-06T03:17:36;1.42;;;1.33;;
58992;SDS011;44782;0.000;0.000;2022-07-06T03:19:52;1.52;;;1.42;;
58992;SDS011;44782;0.000;0.000;2022-07-06T03:22:07;1.35;;;1.27;;
58992;SDS011;44782;0.000;0.000;2022-07-06T03:24:23;1.40;;;1.30;;
58992;SDS011;44782;0.000;0.000;2022-07-06T03:26:39;1.40;;;1.30;;
58992;SDS011;44782;0.000;0.000;2022-07-06T03:28:54;1.40;;;1.30;;
58992;SDS011;44782;0.000;0.000;2022-07-06T03:31:10;1.40;;;1.30;;
58992;SDS011;44782;0.000;0.000;2022-07-06T03:33:25;1.40;;;1.30;;
58992;SDS011;44782;0.000;0.000;2022-07-06T03:35:41;1.60;;;1.50;;
58992;SDS011;44782;0.000;0.000;2022-07-06T03:37:57;1.42;;;1.33;;
58992;SDS011;44782;0.000;0.000;2022-07-06T03:40:12;1.40;;;1.30;;
58992;SDS011;44782;0.000;0.000;2022-07-06T03:42:28;1.50;;;1.38;;
58992;SDS011;44782;0.000;0.000;2022-07-06T03:44:44;1.60;;;1.50;;
58992;SDS011;44782;0.000;0.000;2022-07-06T03:46:59;1.60;;;1.50;;
58992;SDS011;44782;0.000;0.000;2022-07-06T03:49:15;1.45;;;1.35;;
58992;SDS011;44782;0.000;0.000;2022-07-06T03:51:31;1.40;;;1.30;;
58992;SDS011;44782;0.000;0.000;2022-07-06T03:53:46;1.48;;;1.38;;
58992;SDS011;44782;0.000;0.000;2022-07-06T03:56:02;1.50;;;1.40;;
58992;SDS011;44782;0.000;0.000;2022-07-06T03:58:36;1.60;;;1.48;;
58992;SDS011;44782;0.000;0.000;2022-07-06T04:00:52;1.40;;;1.30;;
58992;SDS011;44782;0.000;0.000;2022-07-06T04:03:07;1.40;;;1.30;;
58992;SDS011;44782;0.000;0.000;2022-07-06T04:05:23;1.55;;;1.45;;
58992;SDS011;44782;0.000;0.000;2022-07-06T04:07:39;1.50;;;1.40;;
58992;SDS011;44782;0.000;0.000;2022-07-06T04:09:54;1.40;;;1.30;;
58992;SDS011;44782;0.000;0.000;2022-07-06T04:12:10;1.40;;;1.30;;
58992;SDS011;44782;0.000;0.000;2022-07-06T04:14:26;1.50;;;1.40;;
58992;SDS011;44782;0.000;0.000;2022-07-06T04:16:42;1.60;;;1.50;;
58992;SDS011;44782;0.000;0.000;2022-07-06T04:18:58;1.48;;;1.38;;
58992;SDS011;44782;0.000;0.000;2022-07-06T04:21:13;1.60;;;1.50;;
58992;SDS011;44782;0.000;0.000;2022-07-06T04:23:29;1.65;;;1.27;;
58992;SDS011;44782;0.000;0.000;2022-07-06T04:25:45;1.75;;;1.60;;
58992;SDS011;44782;0.000;0.000;2022-07-06T04:28:00;3.25;;;1.50;;
58992;SDS011;44782;0.000;0.000;2022-07-06T04:30:16;1.70;;;1.60;;
58992;SDS011;44782;0.000;0.000;2022-07-06T04:32:32;1.73;;;1.58;;
58992;SDS011;44782;0.000;0.000;2022-07-06T04:34:47;2.33;;;1.48;;
58992;SDS011;44782;0.000;0.000;2022-07-06T04:37:03;1.70;;;1.60;;
58992;SDS011;44782;0.000;0.000;2022-07-06T04:39:18;1.50;;;1.40;;
58992;SDS011;44782;0.000;0.000;2022-07-06T04:41:34;1.50;;;1.40;;
58992;SDS011;44782;0.000;0.000;2022-07-06T04:43:50;2.15;;;1.38;;
58992;SDS011;44782;0.000;0.000;2022-07-06T04:46:06;1.83;;;1.50;;
58992;SDS011;44782;0.000;0.000;2022-07-06T04:48:21;1.65;;;1.52;;
58992;SDS011;44782;0.000;0.000;2022-07-06T04:50:37;1.60;;;1.50;;
58992;SDS011;44782;0.000;0.000;2022-07-06T04:52:53;2.70;;;1.95;;
58992;SDS011;44782;0.000;0.000;2022-07-06T04:55:08;1.63;;;1.52;;
58992;SDS011;44782;0.000;0.000;2022-07-06T04:57:25;1.50;;;1.40;;
58992;SDS011;44782;0.000;0.000;2022-07-06T04:59:41;4.25;;;1.80;;
58992;SDS011;44782;0.000;0.000;2022-07-06T05:01:56;1.67;;;1.50;;
58992;SDS011;44782;0.000;0.000;2022-07-06T05:04:12;1.50;;;1.40;;
58992;SDS011;44782;0.000;0.000;2022-07-06T05:06:28;1.52;;;1.30;;
58992;SDS011;44782;0.000;0.000;2022-07-06T05:08:44;1.63;;;1.40;;
58992;SDS011;44782;0.000;0.000;2022-07-06T05:11:00;2.55;;;1.50;;
58992;SDS011;44782;0.000;0.000;2022-07-06T05:13:15;1.60;;;1.40;;
58992;SDS011;44782;0.000;0.000;2022-07-06T05:15:31;1.58;;;1.48;;
58992;SDS011;44782;0.000;0.000;2022-07-06T05:17:46;1.50;;;1.40;;
58992;SDS011;44782;0.000;0.000;2022-07-06T05:20:02;2.55;;;1.40;;
58992;SDS011;44782;0.000;0.000;2022-07-06T05:22:19;1.75;;;1.50;;
58992;SDS011;44782;0.000;0.000;2022-07-06T05:24:34;1.52;;;1.42;;
58992;SDS011;44782;0.000;0.000;2022-07-06T05:26:50;1.40;;;1.30;;
58992;SDS011;44782;0.000;0.000;2022-07-06T05:29:06;1.67;;;1.58;;
58992;SDS011;44782;0.000;0.000;2022-07-06T05:31:21;1.30;;;1.20;;
58992;SDS011;44782;0.000;0.000;2022-07-06T05:33:37;1.75;;;1.40;;
58992;SDS011;44782;0.000;0.000;2022-07-06T05:35:53;2.20;;;1.48;;
58992;SDS011;44782;0.000;0.000;2022-07-06T05:38:08;1.77;;;1.25;;
58992;SDS011;44782;0.000;0.000;2022-07-06T05:40:25;2.15;;;1.50;;
58992;SDS011;44782;0.000;0.000;2022-07-06T05:42:41;1.58;;;1.40;;
58992;SDS011;44782;0.000;0.000;2022-07-06T05:44:56;3.05;;;1.63;;
58992;SDS011;44782;0.000;0.000;2022-07-06T05:47:12;5.50;;;1.80;;
58992;SDS011;44782;0.000;0.000;2022-07-06T05:49:46;3.55;;;1.42;;
58992;SDS011;44782;0.000;0.000;2022-07-06T05:52:20;2.00;;;1.63;;
58992;SDS011;44782;0.000;0.000;2022-07-06T05:54:36;1.80;;;1.70;;
58992;SDS011;44782;0.000;0.000;2022-07-06T05:56:52;2.88;;;1.70;;
58992;SDS011;44782;0.000;0.000;2022-07-06T05:59:07;1.92;;;1.80;;
58992;SDS011;44782;0.000;0.000;2022-07-06T06:01:23;2.05;;;1.50;;
58992;SDS011;44782;0.000;0.000;2022-07-06T06:03:38;1.83;;;1.67;;
58992;SDS011;44782;0.000;0.000;2022-07-06T06:05:54;2.55;;;1.67;;
58992;SDS011;44782;0.000;0.000;2022-07-06T06:08:10;2.58;;;1.60;;
58992;SDS011;44782;0.000;0.000;2022-07-06T06:10:25;1.90;;;1.50;;
58992;SDS011;44782;0.000;0.000;2022-07-06T06:12:42;1.80;;;1.67;;
58992;SDS011;44782;0.000;0.000;2022-07-06T06:14:58;1.85;;;1.60;;
58992;SDS011;44782;0.000;0.000;2022-07-06T06:17:14;2.95;;;1.73;;
58992;SDS011;44782;0.000;0.000;2022-07-06T06:19:30;1.95;;;1.80;;
58992;SDS011;44782;0.000;0.000;2022-07-06T06:21:45;2.10;;;1.70;;
58992;SDS011;44782;0.000;0.000;2022-07-06T06:24:01;1.70;;;1.60;;
58992;SDS011;44782;0.000;0.000;2022-07-06T06:26:16;2.38;;;1.65;;
58992;SDS011;44782;0.000;0.000;2022-07-06T06:28:32;1.83;;;1.73;;
58992;SDS011;44782;0.000;0.000;2022-07-06T06:30:48;2.03;;;1.80;;
58992;SDS011;44782;0.000;0.000;2022-07-06T06:33:17;1.70;;;1.58;;
58992;SDS011;44782;0.000;0.000;2022-07-06T06:35:34;2.25;;;1.80;;
58992;SDS011;44782;0.000;0.000;2022-07-06T06:37:50;4.68;;;2.00;;
58992;SDS011;44782;0.000;0.000;2022-07-06T06:40:05;2.50;;;2.00;;
58992;SDS011;44782;0.000;0.000;2022-07-06T06:42:22;2.10;;;1.88;;
58992;SDS011;44782;0.000;0.000;2022-07-06T06:44:37;2.03;;;1.67;;
58992;SDS011;44782;0.000;0.000;2022-07-06T06:46:53;3.20;;;2.03;;
58992;SDS011;44782;0.000;0.000;2022-07-06T06:49:09;3.00;;;2.20;;
58992;SDS011;44782;0.000;0.000;2022-07-06T06:51:25;4.05;;;2.05;;
58992;SDS011;44782;0.000;0.000;2022-07-06T06:53:40;4.88;;;2.10;;
58992;SDS011;44782;0.000;0.000;2022-07-06T06:55:56;3.45;;;1.83;;
58992;SDS011;44782;0.000;0.000;2022-07-06T06:58:12;3.60;;;2.05;;
58992;SDS011;44782;0.000;0.000;2022-07-06T07:00:27;2.40;;;2.00;;
58992;SDS011;44782;0.000;0.000;2022-07-06T07:02:44;3.28;;;1.90;;
58992;SDS011;44782;0.000;0.000;2022-07-06T07:05:00;5.20;;;1.83;;
58992;SDS011;44782;0.000;0.000;2022-07-06T07:07:16;3.08;;;2.00;;
58992;SDS011;44782;0.000;0.000;2022-07-06T07:09:32;2.85;;;1.90;;
58992;SDS011;44782;0.000;0.000;2022-07-06T07:11:47;3.38;;;2.20;;
58992;SDS011;44782;0.000;0.000;2022-07-06T07:14:03;2.90;;;1.92;;
58992;SDS011;44782;0.000;0.000;2022-07-06T07:16:19;2.72;;;2.00;;
58992;SDS011;44782;0.000;0.000;2022-07-06T07:18:35;3.65;;;1.90;;
58992;SDS011;44782;0.000;0.000;2022-07-06T07:20:51;3.15;;;1.90;;
58992;SDS011;44782;0.000;0.000;2022-07-06T07:23:06;4.68;;;2.10;;
58992;SDS011;44782;0.000;0.000;2022-07-06T07:25:22;2.20;;;1.98;;
58992;SDS011;44782;0.000;0.000;2022-07-06T07:27:38;3.13;;;2.00;;
58992;SDS011;44782;0.000;0.000;2022-07-06T07:29:53;2.70;;;2.00;;
58992;SDS011;44782;0.000;0.000;2022-07-06T07:32:09;2.55;;;2.00;;
58992;SDS011;44782;0.000;0.000;2022-07-06T07:34:25;3.83;;;1.90;;
58992;SDS011;44782;0.000;0.000;2022-07-06T07:36:40;2.92;;;2.10;;
58992;SDS011;44782;0.000;0.000;2022-07-06T07:38:56;2.88;;;1.90;;
58992;SDS011;44782;0.000;0.000;2022-07-06T07:41:11;3.10;;;2.13;;
58992;SDS011;44782;0.000;0.000;2022-07-06T07:43:28;3.42;;;1.80;;
58992;SDS011;44782;0.000;0.000;2022-07-06T07:45:44;2.20;;;1.90;;
58992;SDS011;44782;0.000;0.000;2022-07-06T07:48:01;4.25;;;2.08;;
58992;SDS011;44782;0.000;0.000;2022-07-06T07:50:17;2.80;;;1.92;;
58992;SDS011;44782;0.000;0.000;2022-07-06T07:52:33;2.30;;;1.90;;
58992;SDS011;44782;0.000;0.000;2022-07-06T07:54:49;2.83;;;2.10;;
58992;SDS011;44782;0.000;0.000;2022-07-06T07:57:04;2.72;;;1.95;;
58992;SDS011;44782;0.000;0.000;2022-07-06T07:59:20;2.22;;;1.60;;
58992;SDS011;44782;0.000;0.000;2022-07-06T08:01:36;2.03;;;1.80;;
58992;SDS011;44782;0.000;0.000;2022-07-06T08:03:52;2.80;;;1.77;;
58992;SDS011;44782;0.000;0.000;2022-07-06T08:06:07;1.80;;;1.65;;
58992;SDS011;44782;0.000;0.000;2022-07-06T08:08:23;2.22;;;2.00;;
58992;SDS011;44782;0.000;0.000;2022-07-06T08:10:39;2.33;;;1.88;;
58992;SDS011;44782;0.000;0.000;2022-07-06T08:12:54;2.35;;;1.80;;
58992;SDS011;44782;0.000;0.000;2022-07-06T08:15:10;2.58;;;2.00;;
58992;SDS011;44782;0.000;0.000;2022-07-06T08:17:26;3.53;;;2.03;;
58992;SDS011;44782;0.000;0.000;2022-07-06T08:19:41;2.17;;;1.92;;
58992;SDS011;44782;0.000;0.000;2022-07-06T08:21:57;2.65;;;1.75;;
58992;SDS011;44782;0.000;0.000;2022-07-06T08:24:12;2.33;;;2.00;;
58992;SDS011;44782;0.000;0.000;2022-07-06T08:26:28;2.85;;;1.98;;
58992;SDS011;44782;0.000;0.000;2022-07-06T08:28:44;3.08;;;1.90;;
58992;SDS011;44782;0.000;0.000;2022-07-06T08:31:00;2.42;;;1.80;;
58992;SDS011;44782;0.000;0.000;2022-07-06T08:33:15;2.75;;;2.10;;
58992;SDS011;44782;0.000;0.000;2022-07-06T08:35:31;2.92;;;1.85;;
58992;SDS011;44782;0.000;0.000;2022-07-06T08:37:47;2.95;;;1.80;;
58992;SDS011;44782;0.000;0.000;2022-07-06T08:40:03;2.75;;;2.10;;
58992;SDS011;44782;0.000;0.000;2022-07-06T08:42:19;2.72;;;1.95;;
58992;SDS011;44782;0.000;0.000;2022-07-06T08:44:36;2.92;;;2.22;;
58992;SDS011;44782;0.000;0.000;2022-07-06T08:46:52;3.13;;;1.80;;
58992;SDS011;44782;0.000;0.000;2022-07-06T08:49:13;2.45;;;2.10;;
58992;SDS011;44782;0.000;0.000;2022-07-06T08:51:30;3.67;;;2.10;;
58992;SDS011;44782;0.000;0.000;2022-07-06T08:53:46;1.98;;;1.83;;
58992;SDS011;44782;0.000;0.000;2022-07-06T08:56:03;3.30;;;2.10;;
58992;SDS011;44782;0.000;0.000;2022-07-06T08:58:19;3.10;;;1.95;;
58992;SDS011;44782;0.000;0.000;2022-07-06T09:00:38;2.05;;;1.80;;
58992;SDS011;44782;0.000;0.000;2022-07-06T09:02:54;2.38;;;1.95;;
58992;SDS011;44782;0.000;0.000;2022-07-06T09:05:13;2.88;;;1.92;;
58992;SDS011;44782;0.000;0.000;2022-07-06T09:07:30;4.40;;;1.88;;
58992;SDS011;44782;0.000;0.000;2022-07-06T09:09:45;2.60;;;2.10;;
58992;SDS011;44782;0.000;0.000;2022-07-06T09:12:02;3.90;;;2.25;;
58992;SDS011;44782;0.000;0.000;2022-07-06T09:14:18;4.05;;;1.90;;
58992;SDS011;44782;0.000;0.000;2022-07-06T09:16:34;4.45;;;2.00;;
58992;SDS011;44782;0.000;0.000;2022-07-06T09:18:50;3.92;;;1.85;;
58992;SDS011;44782;0.000;0.000;2022-07-06T09:21:06;7.15;;;2.17;;
58992;SDS011;44782;0.000;0.000;2022-07-06T09:23:22;3.83;;;2.13;;
58992;SDS011;44782;0.000;0.000;2022-07-06T09:25:38;4.78;;;2.13;;
58992;SDS011;44782;0.000;0.000;2022-07-06T09:27:56;3.33;;;2.08;;
58992;SDS011;44782;0.000;0.000;2022-07-06T09:30:13;2.90;;;2.10;;
58992;SDS011;44782;0.000;0.000;2022-07-06T09:32:30;3.22;;;2.22;;
58992;SDS011;44782;0.000;0.000;2022-07-06T09:34:46;4.05;;;2.20;;
58992;SDS011;44782;0.000;0.000;2022-07-06T09:37:02;4.13;;;2.17;;
58992;SDS011;44782;0.000;0.000;2022-07-06T09:39:25;4.47;;;2.40;;
58992;SDS011;44782;0.000;0.000;2022-07-06T09:41:46;3.10;;;2.10;;
58992;SDS011;44782;0.000;0.000;2022-07-06T09:44:03;2.65;;;2.38;;
58992;SDS011;44782;0.000;0.000;2022-07-06T09:46:19;2.33;;;2.00;;
58992;SDS011;44782;0.000;0.000;2022-07-06T09:48:35;6.70;;;2.25;;
58992;SDS011;44782;0.000;0.000;2022-07-06T09:50:54;5.15;;;2.20;;
58992;SDS011;44782;0.000;0.000;2022-07-06T09:53:14;2.15;;;1.90;;
58992;SDS011;44782;0.000;0.000;2022-07-06T09:55:30;2.45;;;2.15;;
58992;SDS011;44782;0.000;0.000;2022-07-06T09:57:52;2.72;;;2.17;;
58992;SDS011;44782;0.000;0.000;2022-07-06T10:00:09;3.13;;;2.20;;
58992;SDS011;44782;0.000;0.000;2022-07-06T10:02:25;4.65;;;2.10;;
58992;SDS011;44782;0.000;0.000;2022-07-06T10:04:42;4.40;;;2.30;;
58992;SDS011;44782;0.000;0.000;2022-07-06T10:07:00;2.63;;;1.95;;
58992;SDS011;44782;0.000;0.000;2022-07-06T10:09:18;3.13;;;2.28;;
58992;SDS011;44782;0.000;0.000;2022-07-06T10:11:36;2.75;;;2.10;;
58992;SDS011;44782;0.000;0.000;2022-07-06T10:13:54;3.33;;;2.03;;
58992;SDS011;44782;0.000;0.000;2022-07-06T10:16:12;2.85;;;2.10;;
58992;SDS011;44782;0.000;0.000;2022-07-06T10:18:29;2.50;;;1.98;;
58992;SDS011;44782;0.000;0.000;2022-07-06T10:20:45;2.35;;;1.83;;
58992;SDS011;44782;0.000;0.000;2022-07-06T10:23:01;2.20;;;1.98;;
58992;SDS011;44782;0.000;0.000;2022-07-06T10:25:18;2.85;;;1.92;;
58992;SDS011;44782;0.000;0.000;2022-07-06T10:27:34;2.78;;;2.30;;
58992;SDS011;44782;0.000;0.000;2022-07-06T10:29:50;3.38;;;1.90;;
58992;SDS011;44782;0.000;0.000;2022-07-06T10:32:06;2.20;;;2.03;;
58992;SDS011;44782;0.000;0.000;2022-07-06T10:34:23;3.67;;;2.13;;
58992;SDS011;44782;0.000;0.000;2022-07-06T10:36:40;3.03;;;1.90;;
58992;SDS011;44782;0.000;0.000;2022-07-06T10:38:56;2.50;;;1.88;;
58992;SDS011;44782;0.000;0.000;2022-07-06T10:41:12;2.33;;;1.98;;
58992;SDS011;44782;0.000;0.000;2022-07-06T10:43:31;4.70;;;2.03;;
58992;SDS011;44782;0.000;0.000;2022-07-06T10:45:50;2.17;;;1.98;;
58992;SDS011;44782;0.000;0.000;2022-07-06T10:50:34;3.47;;;2.10;;
58992;SDS011;44782;0.000;0.000;2022-07-06T10:52:59;3.90;;;2.17;;
58992;SDS011;44782;0.000;0.000;2022-07-06T10:55:28;2.20;;;2.00;;
58992;SDS011;44782;0.000;0.000;2022-07-06T10:57:51;2.10;;;1.90;;
58992;SDS011;44782;0.000;0.000;2022-07-06T11:00:07;3.58;;;2.10;;
58992;SDS011;44782;0.000;0.000;2022-07-06T11:02:25;1.90;;;1.80;;
58992;SDS011;44782;0.000;0.000;2022-07-06T11:04:44;3.50;;;1.90;;
58992;SDS011;44782;0.000;0.000;2022-07-06T11:07:11;1.95;;;1.70;;
58992;SDS011;44782;0.000;0.000;2022-07-06T11:09:31;2.10;;;1.90;;
58992;SDS011;44782;0.000;0.000;2022-07-06T11:11:47;2.05;;;1.85;;
58992;SDS011;44782;0.000;0.000;2022-07-06T11:14:07;2.28;;;2.08;;
58992;SDS011;44782;0.000;0.000;2022-07-06T11:16:24;2.90;;;1.80;;
58992;SDS011;44782;0.000;0.000;2022-07-06T11:18:42;2.00;;;1.77;;
58992;SDS011;44782;0.000;0.000;2022-07-06T11:21:18;2.00;;;1.77;;
58992;SDS011;44782;0.000;0.000;2022-07-06T11:23:36;2.00;;;1.73;;
58992;SDS011;44782;0.000;0.000;2022-07-06T11:25:51;2.63;;;1.90;;
58992;SDS011;44782;0.000;0.000;2022-07-06T11:28:07;2.20;;;2.00;;
58992;SDS011;44782;0.000;0.000;2022-07-06T11:30:23;2.70;;;2.00;;
58992;SDS011;44782;0.000;0.000;2022-07-06T11:32:40;2.20;;;1.75;;
58992;SDS011;44782;0.000;0.000;2022-07-06T11:34:55;3.05;;;1.70;;
58992;SDS011;44782;0.000;0.000;2022-07-06T11:37:13;2.22;;;1.90;;
58992;SDS011;44782;0.000;0.000;2022-07-06T11:39:31;2.05;;;1.80;;
58992;SDS011;44782;0.000;0.000;2022-07-06T11:41:49;2.00;;;1.60;;
58992;SDS011;44782;0.000;0.000;2022-07-06T11:44:04;2.53;;;1.90;;
58992;SDS011;44782;0.000;0.000;2022-07-06T11:46:24;2.30;;;2.00;;
58992;SDS011;44782;0.000;0.000;2022-07-06T11:48:44;2.75;;;2.00;;
58992;SDS011;44782;0.000;0.000;2022-07-06T11:51:02;2.60;;;1.90;;
58992;SDS011;44782;0.000;0.000;2022-07-06T11:53:18;2.92;;;1.95;;
58992;SDS011;44782;0.000;0.000;2022-07-06T11:55:34;2.20;;;2.00;;
58992;SDS011;44782;0.000;0.000;2022-07-06T11:57:49;1.90;;;1.80;;
58992;SDS011;44782;0.000;0.000;2022-07-06T12:00:07;1.95;;;1.75;;
58992;SDS011;44782;0.000;0.000;2022-07-06T12:02:23;1.90;;;1.70;;
58992;SDS011;44782;0.000;0.000;2022-07-06T12:04:40;2.55;;;1.90;;
58992;SDS011;44782;0.000;0.000;2022-07-06T12:07:01;3.22;;;1.75;;
58992;SDS011;44782;0.000;0.000;2022-07-06T12:09:17;1.80;;;1.70;;
58992;SDS011;44782;0.000;0.000;2022-07-06T12:11:36;1.90;;;1.80;;
58992;SDS011;44782;0.000;0.000;2022-07-06T12:13:53;2.30;;;1.70;;
58992;SDS011;44782;0.000;0.000;2022-07-06T12:16:13;2.15;;;1.70;;
58992;SDS011;44782;0.000;0.000;2022-07-06T12:18:36;2.20;;;2.00;;
58992;SDS011;44782;0.000;0.000;2022-07-06T12:20:53;2.10;;;1.90;;
58992;SDS011;44782;0.000;0.000;2022-07-06T12:23:10;1.85;;;1.55;;
58992;SDS011;44782;0.000;0.000;2022-07-06T12:25:32;2.20;;;2.00;;
58992;SDS011;44782;0.000;0.000;2022-07-06T12:27:51;1.80;;;1.70;;
58992;SDS011;44782;0.000;0.000;2022-07-06T12:30:08;2.38;;;1.77;;
58992;SDS011;44782;0.000;0.000;2022-07-06T12:32:27;2.30;;;1.80;;
58992;SDS011;44782;0.000;0.000;2022-07-06T12:34:43;1.70;;;1.60;;
58992;SDS011;44782;0.000;0.000;2022-07-06T12:37:03;1.70;;;1.60;;
58992;SDS011;44782;0.000;0.000;2022-07-06T12:39:22;1.70;;;1.60;;
58992;SDS011;44782;0.000;0.000;2022-07-06T12:41:43;1.67;;;1.58;;
58992;SDS011;44782;0.000;0.000;2022-07-06T12:44:08;1.73;;;1.63;;
58992;SDS011;44782;0.000;0.000;2022-07-06T12:46:32;1.98;;;1.70;;
58992;SDS011;44782;0.000;0.000;2022-07-06T12:48:55;2.88;;;1.60;;
58992;SDS011;44782;0.000;0.000;2022-07-06T12:51:11;1.70;;;1.60;;
58992;SDS011;44782;0.000;0.000;2022-07-06T12:53:27;1.80;;;1.70;;
58992;SDS011;44782;0.000;0.000;2022-07-06T12:55:42;2.42;;;1.63;;
58992;SDS011;44782;0.000;0.000;2022-07-06T12:57:58;1.60;;;1.50;;
58992;SDS011;44782;0.000;0.000;2022-07-06T13:00:14;1.70;;;1.60;;
58992;SDS011;44782;0.000;0.000;2022-07-06T13:07:18;2.47;;;1.70;;
58992;SDS011;44782;0.000;0.000;2022-07-06T13:09:34;1.55;;;1.45;;
58992;SDS011;44782;0.000;0.000;2022-07-06T13:11:50;2.15;;;1.70;;
58992;SDS011;44782;0.000;0.000;2022-07-06T13:14:06;1.60;;;1.50;;
58992;SDS011;44782;0.000;0.000;2022-07-06T13:16:21;1.70;;;1.60;;
58992;SDS011;44782;0.000;0.000;2022-07-06T13:18:39;1.80;;;1.70;;
58992;SDS011;44782;0.000;0.000;2022-07-06T13:20:54;2.13;;;1.77;;
58992;SDS011;44782;0.000;0.000;2022-07-06T13:23:10;1.77;;;1.55;;
58992;SDS011;44782;0.000;0.000;2022-07-06T13:25:26;1.73;;;1.63;;
58992;SDS011;44782;0.000;0.000;2022-07-06T13:27:41;1.73;;;1.63;;
58992;SDS011;44782;0.000;0.000;2022-07-06T13:29:57;1.50;;;1.40;;
58992;SDS011;44782;0.000;0.000;2022-07-06T13:32:13;1.67;;;1.50;;
58992;SDS011;44782;0.000;0.000;2022-07-06T13:34:28;1.80;;;1.70;;
58992;SDS011;44782;0.000;0.000;2022-07-06T13:36:44;1.70;;;1.60;;
58992;SDS011;44782;0.000;0.000;2022-07-06T13:39:00;2.15;;;1.50;;
58992;SDS011;44782;0.000;0.000;2022-07-06T13:41:16;1.48;;;1.38;;
58992;SDS011;44782;0.000;0.000;2022-07-06T13:43:31;1.70;;;1.50;;
58992;SDS011;44782;0.000;0.000;2022-07-06T13:45:50;1.55;;;1.45;;
58992;SDS011;44782;0.000;0.000;2022-07-06T13:48:06;3.63;;;1.60;;
58992;SDS011;44782;0.000;0.000;2022-07-06T13:50:22;1.40;;;1.30;;
58992;SDS011;44782;0.000;0.000;2022-07-06T13:52:37;1.52;;;1.42;;
58992;SDS011;44782;0.000;0.000;2022-07-06T13:54:53;1.60;;;1.50;;
58992;SDS011;44782;0.000;0.000;2022-07-06T13:57:08;1.60;;;1.50;;
58992;SDS011;44782;0.000;0.000;2022-07-06T13:59:24;1.55;;;1.42;;
58992;SDS011;44782;0.000;0.000;2022-07-06T14:01:40;1.60;;;1.30;;